This is the latest recevied weather packets stored in our database for station/object OH6DL-15. If no packets are shown the sender has not sent any weather packets the latest 10 day(s).
| Time | Temp. | Humidity | Pressure | Rain* | Wind** | Luminosity | Snow |
|---|---|---|---|---|---|---|---|
| 1777152963 | -0.56° C | 79% | 996.3 hPa | 0 mm | - | - | - |
| 1777150443 | -0.56° C | 79% | 996.1 hPa | 0 mm | - | - | - |
| 1777146843 | 0° C | 82% | 995.6 hPa | 0 mm | - | - | - |
| 1777146304 | 0° C | 81% | 995.7 hPa | 0 mm | - | - | - |
| 1777144143 | 0° C | 82% | 995.2 hPa | 0 mm | - | - | - |
| 1777143737 | 0° C | 82% | 995 hPa | 0 mm | - | - | - |
| 1777141755 | -0.56° C | 86% | 994.8 hPa | 0 mm | - | - | - |
| 1777139774 | -0.56° C | 90% | 994.3 hPa | 0 mm | - | - | - |
| 1777136944 | -0.56° C | 92% | 993.6 hPa | 0 mm | - | - | - |
| 1777136044 | -0.56° C | 93% | 993.5 hPa | 0 mm | - | - | - |
| 1777125604 | 1.67° C | 84% | 990.2 hPa | 0 mm | - | - | - |
| 1777125243 | 1.67° C | 82% | 990.1 hPa | 0 mm | - | - | - |
| 1777123083 | 2.22° C | 82% | 989.2 hPa | 0 mm | - | - | - |
| 1777116423 | 6.67° C | 74% | 987.2 hPa | 0.25 mm | - | - | - |
| 1777115343 | 7.78° C | 65% | 986.9 hPa | 0 mm | - | - | - |
| 1777109223 | 5° C | 84% | 987.4 hPa | 0 mm | - | - | - |
| 1777107604 | 5.56° C | 80% | 987.7 hPa | 0 mm | - | - | - |
| 1777107244 | 6.11° C | 76% | 987.4 hPa | 0 mm | - | - | - |
| 1777106164 | 6.11° C | 78% | 987.9 hPa | 0 mm | - | - | - |
| 1777103643 | 4.44° C | 88% | 988.5 hPa | 0 mm | - | - | - |
| 1777098963 | 5° C | 79% | 988.8 hPa | 0 mm | - | - | - |
| 1777098423 | 5° C | 79% | 988.9 hPa | 0 mm | - | - | - |
| 1777094283 | 4.44° C | 83% | 989.9 hPa | 0 mm | - | - | - |
| 1777092843 | 4.44° C | 83% | 990 hPa | 0 mm | - | - | - |
| 1777092434 | 3.89° C | 84% | 990.2 hPa | 0 mm | - | - | - |
* Rain latest hour (hover to see other rain measurements)
** Current wind speed in m/s (hover to see current wind gust speed)